sensor_id;sensor_type;location;lat;lon;timestamp;pressure;altitude;pressure_sealevel;temperature;humidity
75298;BME280;63896;45.990;18.688;2023-07-22T00:00:36;100314.31;;;19.68;100.00
75298;BME280;63896;45.990;18.688;2023-07-22T00:03:39;100321.59;;;19.68;100.00
75298;BME280;63896;45.990;18.688;2023-07-22T00:06:42;100320.78;;;19.72;100.00
75298;BME280;63896;45.990;18.688;2023-07-22T00:09:45;100332.84;;;19.80;100.00
75298;BME280;63896;45.990;18.688;2023-07-22T00:12:48;100336.06;;;19.82;100.00
75298;BME280;63896;45.990;18.688;2023-07-22T00:15:51;100356.53;;;19.78;100.00
75298;BME280;63896;45.990;18.688;2023-07-22T00:18:55;100374.88;;;19.76;100.00
75298;BME280;63896;45.990;18.688;2023-07-22T00:21:58;100389.94;;;19.77;100.00
75298;BME280;63896;45.990;18.688;2023-07-22T00:25:01;100390.19;;;19.80;100.00
75298;BME280;63896;45.990;18.688;2023-07-22T00:28:04;100388.59;;;19.79;100.00
75298;BME280;63896;45.990;18.688;2023-07-22T00:31:07;100378.88;;;19.83;100.00
75298;BME280;63896;45.990;18.688;2023-07-22T00:34:11;100386.97;;;19.78;100.00
75298;BME280;63896;45.990;18.688;2023-07-22T00:37:14;100380.78;;;19.78;100.00
75298;BME280;63896;45.990;18.688;2023-07-22T00:40:20;100378.88;;;19.78;100.00
75298;BME280;63896;45.990;18.688;2023-07-22T00:43:24;100386.72;;;19.75;100.00
75298;BME280;63896;45.990;18.688;2023-07-22T00:46:28;100383.75;;;19.71;100.00
75298;BME280;63896;45.990;18.688;2023-07-22T00:49:32;100395.59;;;19.75;100.00
75298;BME280;63896;45.990;18.688;2023-07-22T00:52:37;100393.19;;;19.69;100.00
75298;BME280;63896;45.990;18.688;2023-07-22T00:55:41;100393.19;;;19.69;100.00
75298;BME280;63896;45.990;18.688;2023-07-22T00:58:44;100387.81;;;19.64;100.00
75298;BME280;63896;45.990;18.688;2023-07-22T01:01:47;100374.06;;;19.70;100.00
75298;BME280;63896;45.990;18.688;2023-07-22T01:04:50;100368.16;;;19.68;100.00
75298;BME280;63896;45.990;18.688;2023-07-22T01:07:54;100357.66;;;19.67;100.00
75298;BME280;63896;45.990;18.688;2023-07-22T01:10:57;100360.09;;;19.68;100.00
75298;BME280;63896;45.990;18.688;2023-07-22T01:14:00;100368.41;;;19.72;100.00
75298;BME280;63896;45.990;18.688;2023-07-22T01:17:07;100367.59;;;19.71;100.00
75298;BME280;63896;45.990;18.688;2023-07-22T01:20:11;100380.00;;;19.72;100.00
75298;BME280;63896;45.990;18.688;2023-07-22T01:23:14;100388.03;;;19.77;100.00
75298;BME280;63896;45.990;18.688;2023-07-22T01:26:17;100387.78;;;19.79;100.00
75298;BME280;63896;45.990;18.688;2023-07-22T01:29:22;100403.94;;;19.74;100.00
75298;BME280;63896;45.990;18.688;2023-07-22T01:32:25;100410.41;;;19.73;100.00
75298;BME280;63896;45.990;18.688;2023-07-22T01:35:28;100409.34;;;19.69;100.00
75298;BME280;63896;45.990;18.688;2023-07-22T01:38:31;100424.66;;;19.73;100.00
75298;BME280;63896;45.990;18.688;2023-07-22T01:41:38;100414.75;;;19.59;100.00
75298;BME280;63896;45.990;18.688;2023-07-22T01:44:41;100413.69;;;19.55;100.00
75298;BME280;63896;45.990;18.688;2023-07-22T01:47:44;100400.25;;;19.49;100.00
75298;BME280;63896;45.990;18.688;2023-07-22T01:50:47;100410.47;;;19.53;100.00
75298;BME280;63896;45.990;18.688;2023-07-22T01:53:51;100414.53;;;19.45;100.00
75298;BME280;63896;45.990;18.688;2023-07-22T01:56:53;100423.91;;;19.42;100.00
75298;BME280;63896;45.990;18.688;2023-07-22T01:59:57;100415.56;;;19.39;100.00
75298;BME280;63896;45.990;18.688;2023-07-22T02:03:00;100419.59;;;19.36;100.00
75298;BME280;63896;45.990;18.688;2023-07-22T02:06:04;100418.25;;;19.39;100.00
75298;BME280;63896;45.990;18.688;2023-07-22T02:09:10;100421.78;;;19.34;100.00
75298;BME280;63896;45.990;18.688;2023-07-22T02:12:18;100420.97;;;19.34;100.00
75298;BME280;63896;45.990;18.688;2023-07-22T02:15:21;100407.25;;;19.30;100.00
75298;BME280;63896;45.990;18.688;2023-07-22T02:18:27;100415.84;;;19.27;100.00
75298;BME280;63896;45.990;18.688;2023-07-22T02:21:30;100427.69;;;19.21;100.00
75298;BME280;63896;45.990;18.688;2023-07-22T02:24:36;100424.75;;;19.18;100.00
75298;BME280;63896;45.990;18.688;2023-07-22T02:27:39;100436.84;;;19.10;100.00
75298;BME280;63896;45.990;18.688;2023-07-22T02:30:43;100432.53;;;18.99;100.00
75298;BME280;63896;45.990;18.688;2023-07-22T02:33:46;100434.41;;;18.93;100.00
75298;BME280;63896;45.990;18.688;2023-07-22T02:36:49;100429.00;;;18.88;100.00
75298;BME280;63896;45.990;18.688;2023-07-22T02:39:54;100430.91;;;18.83;100.00
75298;BME280;63896;45.990;18.688;2023-07-22T02:42:57;100437.34;;;18.77;100.00
75298;BME280;63896;45.990;18.688;2023-07-22T02:46:05;100434.09;;;18.70;100.00
75298;BME280;63896;45.990;18.688;2023-07-22T02:49:10;100422.53;;;18.69;100.00
75298;BME280;63896;45.990;18.688;2023-07-22T02:52:24;100431.44;;;18.65;100.00
75298;BME280;63896;45.990;18.688;2023-07-22T02:55:27;100434.63;;;18.67;100.00
75298;BME280;63896;45.990;18.688;2023-07-22T02:58:30;100430.59;;;18.69;100.00
75298;BME280;63896;45.990;18.688;2023-07-22T03:01:33;100438.94;;;18.63;100.00
75298;BME280;63896;45.990;18.688;2023-07-22T03:04:39;100440.81;;;18.62;100.00
75298;BME280;63896;45.990;18.688;2023-07-22T03:07:44;100447.28;;;18.61;100.00
75298;BME280;63896;45.990;18.688;2023-07-22T03:10:47;100446.75;;;18.64;100.00
75298;BME280;63896;45.990;18.688;2023-07-22T03:13:51;100444.31;;;18.68;100.00
75298;BME280;63896;45.990;18.688;2023-07-22T03:16:54;100444.31;;;18.68;100.00
75298;BME280;63896;45.990;18.688;2023-07-22T03:19:57;100453.19;;;18.63;100.00
75298;BME280;63896;45.990;18.688;2023-07-22T03:23:01;100465.78;;;18.58;100.00
75298;BME280;63896;45.990;18.688;2023-07-22T03:26:08;100460.69;;;18.56;100.00
75298;BME280;63896;45.990;18.688;2023-07-22T03:29:12;100461.22;;;18.53;100.00
75298;BME280;63896;45.990;18.688;2023-07-22T03:32:19;100460.41;;;18.52;100.00
75298;BME280;63896;45.990;18.688;2023-07-22T03:35:22;100460.94;;;18.54;100.00
75298;BME280;63896;45.990;18.688;2023-07-22T03:38:26;100464.44;;;18.55;100.00
75298;BME280;63896;45.990;18.688;2023-07-22T03:41:29;100462.84;;;18.59;100.00
75298;BME280;63896;45.990;18.688;2023-07-22T03:44:32;100476.03;;;18.66;100.00
75298;BME280;63896;45.990;18.688;2023-07-22T03:47:35;100464.47;;;18.70;100.00
75298;BME280;63896;45.990;18.688;2023-07-22T03:50:38;100461.53;;;18.77;100.00
75298;BME280;63896;45.990;18.688;2023-07-22T03:53:40;100481.19;;;18.87;100.00
75298;BME280;63896;45.990;18.688;2023-07-22T03:56:43;100488.47;;;18.92;100.00
75298;BME280;63896;45.990;18.688;2023-07-22T03:59:47;100478.50;;;18.97;100.00
75298;BME280;63896;45.990;18.688;2023-07-22T04:02:49;100466.69;;;19.03;100.00
75298;BME280;63896;45.990;18.688;2023-07-22T04:05:54;100465.09;;;19.08;100.00
75298;BME280;63896;45.990;18.688;2023-07-22T04:08:58;100480.69;;;19.11;100.00
75298;BME280;63896;45.990;18.688;2023-07-22T04:12:03;100485.28;;;19.15;100.00
75298;BME280;63896;45.990;18.688;2023-07-22T04:15:06;100492.78;;;19.23;100.00
75298;BME280;63896;45.990;18.688;2023-07-22T04:18:10;100491.97;;;19.28;100.00
75298;BME280;63896;45.990;18.688;2023-07-22T04:21:13;100501.94;;;19.37;100.00
75298;BME280;63896;45.990;18.688;2023-07-22T04:24:19;100510.59;;;19.44;100.00
75298;BME280;63896;45.990;18.688;2023-07-22T04:27:22;100520.00;;;19.57;100.00
75298;BME280;63896;45.990;18.688;2023-07-22T04:30:25;100536.41;;;19.66;100.00
75298;BME280;63896;45.990;18.688;2023-07-22T04:33:28;100541.25;;;19.79;100.00
75298;BME280;63896;45.990;18.688;2023-07-22T04:36:31;100552.84;;;19.84;100.00
75298;BME280;63896;45.990;18.688;2023-07-22T04:39:34;100548.78;;;19.87;100.00
75298;BME280;63896;45.990;18.688;2023-07-22T04:42:42;100564.66;;;20.04;100.00
75298;BME280;63896;45.990;18.688;2023-07-22T04:45:46;100568.16;;;19.99;100.00
75298;BME280;63896;45.990;18.688;2023-07-22T04:48:53;100585.66;;;20.12;100.00
75298;BME280;63896;45.990;18.688;2023-07-22T04:51:59;100586.44;;;20.17;100.00
75298;BME280;63896;45.990;18.688;2023-07-22T04:55:03;100588.59;;;20.25;100.00
75298;BME280;63896;45.990;18.688;2023-07-22T04:58:11;100584.81;;;20.31;100.00
75298;BME280;63896;45.990;18.688;2023-07-22T05:01:15;100579.94;;;20.43;100.00
75298;BME280;63896;45.990;18.688;2023-07-22T05:04:21;100580.78;;;20.34;100.00
75298;BME280;63896;45.990;18.688;2023-07-22T05:07:24;100568.59;;;20.57;100.00
75298;BME280;63896;45.990;18.688;2023-07-22T05:10:28;100567.41;;;20.78;100.00
75298;BME280;63896;45.990;18.688;2023-07-22T05:13:31;100565.91;;;21.16;100.00
75298;BME280;63896;45.990;18.688;2023-07-22T05:16:34;100571.50;;;21.24;100.00
75298;BME280;63896;45.990;18.688;2023-07-22T05:19:37;100572.63;;;21.13;100.00
75298;BME280;63896;45.990;18.688;2023-07-22T05:22:40;100578.72;;;21.34;100.00
75298;BME280;63896;45.990;18.688;2023-07-22T05:25:50;100585.91;;;21.49;100.00
75298;BME280;63896;45.990;18.688;2023-07-22T05:28:54;100585.06;;;21.53;100.00
75298;BME280;63896;45.990;18.688;2023-07-22T05:31:57;100584.81;;;21.50;100.00
75298;BME280;63896;45.990;18.688;2023-07-22T05:35:00;100584.34;;;21.43;100.00
75298;BME280;63896;45.990;18.688;2023-07-22T05:38:07;100590.19;;;21.55;100.00
75298;BME280;63896;45.990;18.688;2023-07-22T05:41:11;100597.63;;;21.34;100.00
75298;BME280;63896;45.990;18.688;2023-07-22T05:44:13;100592.31;;;21.58;100.00
75298;BME280;63896;45.990;18.688;2023-07-22T05:47:19;100598.91;;;21.80;100.00
75298;BME280;63896;45.990;18.688;2023-07-22T05:50:22;100608.78;;;21.90;100.00
75298;BME280;63896;45.990;18.688;2023-07-22T05:53:25;100606.19;;;22.14;100.00
75298;BME280;63896;45.990;18.688;2023-07-22T05:56:28;100603.03;;;22.02;100.00
75298;BME280;63896;45.990;18.688;2023-07-22T05:59:36;100610.44;;;22.44;100.00
75298;BME280;63896;45.990;18.688;2023-07-22T06:02:39;100621.59;;;22.66;100.00
75298;BME280;63896;45.990;18.688;2023-07-22T06:05:42;100627.28;;;22.88;100.00
75298;BME280;63896;45.990;18.688;2023-07-22T06:08:45;100637.66;;;23.05;100.00
75298;BME280;63896;45.990;18.688;2023-07-22T06:11:48;100641.28;;;23.14;100.00
75298;BME280;63896;45.990;18.688;2023-07-22T06:14:53;100644.53;;;23.35;100.00
75298;BME280;63896;45.990;18.688;2023-07-22T06:18:01;100643.63;;;23.63;98.66
75298;BME280;63896;45.990;18.688;2023-07-22T06:21:05;100646.94;;;23.17;95.90
75298;BME280;63896;45.990;18.688;2023-07-22T06:24:07;100653.56;;;23.86;94.94
75298;BME280;63896;45.990;18.688;2023-07-22T06:27:10;100662.25;;;24.02;94.08
75298;BME280;63896;45.990;18.688;2023-07-22T06:30:13;100659.78;;;24.19;91.44
75298;BME280;63896;45.990;18.688;2023-07-22T06:33:16;100656.88;;;24.15;90.25
75298;BME280;63896;45.990;18.688;2023-07-22T06:36:20;100649.19;;;24.36;89.43
75298;BME280;63896;45.990;18.688;2023-07-22T06:39:23;100650.91;;;24.32;90.03
75298;BME280;63896;45.990;18.688;2023-07-22T06:42:26;100642.28;;;24.57;89.04
75298;BME280;63896;45.990;18.688;2023-07-22T06:45:30;100653.16;;;24.85;81.03
75298;BME280;63896;45.990;18.688;2023-07-22T06:48:34;100650.31;;;25.03;83.48
75298;BME280;63896;45.990;18.688;2023-07-22T06:51:36;100653.16;;;25.48;78.67
75298;BME280;63896;45.990;18.688;2023-07-22T06:54:39;100649.69;;;25.92;76.00
75298;BME280;63896;45.990;18.688;2023-07-22T06:57:43;100657.16;;;25.64;75.30
75298;BME280;63896;45.990;18.688;2023-07-22T07:00:46;100664.31;;;25.46;73.98
75298;BME280;63896;45.990;18.688;2023-07-22T07:03:49;100647.84;;;25.43;73.62
75298;BME280;63896;45.990;18.688;2023-07-22T07:06:52;100657.00;;;25.83;74.43
75298;BME280;63896;45.990;18.688;2023-07-22T07:09:56;100657.09;;;26.00;70.42
75298;BME280;63896;45.990;18.688;2023-07-22T07:12:59;100647.97;;;26.58;67.22
75298;BME280;63896;45.990;18.688;2023-07-22T07:16:25;100664.47;;;26.61;64.33
75298;BME280;63896;45.990;18.688;2023-07-22T07:19:28;100662.72;;;25.81;66.18
75298;BME280;63896;45.990;18.688;2023-07-22T07:22:31;100663.75;;;26.78;66.88
75298;BME280;63896;45.990;18.688;2023-07-22T07:25:34;100674.22;;;27.58;64.29
75298;BME280;63896;45.990;18.688;2023-07-22T07:28:37;100679.84;;;27.79;62.50
75298;BME280;63896;45.990;18.688;2023-07-22T07:31:40;100676.75;;;27.29;62.40
75298;BME280;63896;45.990;18.688;2023-07-22T07:34:47;100680.97;;;26.87;62.07
75298;BME280;63896;45.990;18.688;2023-07-22T07:37:50;100684.31;;;28.64;58.22
75298;BME280;63896;45.990;18.688;2023-07-22T07:41:02;100686.13;;;28.98;55.87
75298;BME280;63896;45.990;18.688;2023-07-22T07:44:05;100683.22;;;29.53;58.01
75298;BME280;63896;45.990;18.688;2023-07-22T07:47:08;100680.72;;;30.02;54.46
75298;BME280;63896;45.990;18.688;2023-07-22T07:50:11;100693.66;;;30.83;52.93
75298;BME280;63896;45.990;18.688;2023-07-22T07:53:14;100681.00;;;31.27;47.92
75298;BME280;63896;45.990;18.688;2023-07-22T07:56:18;100674.47;;;30.95;49.38
75298;BME280;63896;45.990;18.688;2023-07-22T07:59:21;100676.41;;;31.71;49.98
75298;BME280;63896;45.990;18.688;2023-07-22T08:02:27;100684.53;;;32.07;48.06
75298;BME280;63896;45.990;18.688;2023-07-22T08:05:30;100687.75;;;32.40;45.10
75298;BME280;63896;45.990;18.688;2023-07-22T08:08:34;100687.09;;;32.59;46.71
75298;BME280;63896;45.990;18.688;2023-07-22T08:11:37;100689.41;;;33.39;43.34
75298;BME280;63896;45.990;18.688;2023-07-22T08:14:40;100691.38;;;33.96;41.16
75298;BME280;63896;45.990;18.688;2023-07-22T08:17:43;100698.09;;;33.98;40.44
75298;BME280;63896;45.990;18.688;2023-07-22T08:20:53;100693.84;;;33.63;42.10
75298;BME280;63896;45.990;18.688;2023-07-22T08:23:56;100690.22;;;33.59;40.43
75298;BME280;63896;45.990;18.688;2023-07-22T08:27:00;100690.34;;;33.46;40.13
75298;BME280;63896;45.990;18.688;2023-07-22T08:30:07;100686.84;;;33.30;41.44
75298;BME280;63896;45.990;18.688;2023-07-22T08:33:10;100690.03;;;34.97;39.45
75298;BME280;63896;45.990;18.688;2023-07-22T08:36:20;100707.75;;;34.27;39.34
75298;BME280;63896;45.990;18.688;2023-07-22T08:39:23;100706.19;;;33.34;40.97
75298;BME280;63896;45.990;18.688;2023-07-22T08:42:28;100702.78;;;33.94;39.84
75298;BME280;63896;45.990;18.688;2023-07-22T08:45:34;100698.84;;;34.15;38.34
75298;BME280;63896;45.990;18.688;2023-07-22T08:48:41;100695.19;;;34.98;39.19
75298;BME280;63896;45.990;18.688;2023-07-22T08:51:46;100693.50;;;35.46;37.39
75298;BME280;63896;45.990;18.688;2023-07-22T08:54:50;100697.50;;;35.49;38.03
75298;BME280;63896;45.990;18.688;2023-07-22T08:57:54;100695.94;;;34.72;37.52
75298;BME280;63896;45.990;18.688;2023-07-22T09:00:58;100694.13;;;34.61;37.91
75298;BME280;63896;45.990;18.688;2023-07-22T09:04:01;100703.78;;;35.49;35.69
75298;BME280;63896;45.990;18.688;2023-07-22T09:07:05;100708.94;;;35.51;35.17
75298;BME280;63896;45.990;18.688;2023-07-22T09:10:08;100710.41;;;35.15;35.51
75298;BME280;63896;45.990;18.688;2023-07-22T09:13:13;100707.69;;;34.92;37.95
75298;BME280;63896;45.990;18.688;2023-07-22T09:16:19;100708.38;;;35.12;37.41
75298;BME280;63896;45.990;18.688;2023-07-22T09:19:23;100699.19;;;35.57;34.51
75298;BME280;63896;45.990;18.688;2023-07-22T09:22:26;100706.63;;;36.56;33.59
75298;BME280;63896;45.990;18.688;2023-07-22T09:25:32;100701.88;;;37.04;32.23
75298;BME280;63896;45.990;18.688;2023-07-22T09:28:53;100713.78;;;37.12;31.23
75298;BME280;63896;45.990;18.688;2023-07-22T09:31:57;100711.97;;;37.37;32.29
75298;BME280;63896;45.990;18.688;2023-07-22T09:35:00;100712.00;;;37.41;31.90
75298;BME280;63896;45.990;18.688;2023-07-22T09:38:05;100697.81;;;36.44;33.19
75298;BME280;63896;45.990;18.688;2023-07-22T09:41:18;100688.69;;;36.84;32.94
75298;BME280;63896;45.990;18.688;2023-07-22T09:44:29;100688.13;;;36.64;32.72
75298;BME280;63896;45.990;18.688;2023-07-22T09:47:43;100689.19;;;37.65;30.80
75298;BME280;63896;45.990;18.688;2023-07-22T09:50:55;100683.81;;;38.18;28.97
75298;BME280;63896;45.990;18.688;2023-07-22T09:54:04;100690.66;;;37.48;30.40
75298;BME280;63896;45.990;18.688;2023-07-22T09:57:12;100685.44;;;38.47;28.86
75298;BME280;63896;45.990;18.688;2023-07-22T10:00:16;100685.69;;;37.93;30.43
75298;BME280;63896;45.990;18.688;2023-07-22T10:03:23;100688.78;;;37.70;30.26
75298;BME280;63896;45.990;18.688;2023-07-22T10:06:33;100678.50;;;37.67;30.62
75298;BME280;63896;45.990;18.688;2023-07-22T10:09:40;100684.47;;;37.04;31.10
75298;BME280;63896;45.990;18.688;2023-07-22T10:12:44;100672.25;;;37.91;29.25
75298;BME280;63896;45.990;18.688;2023-07-22T10:15:48;100680.25;;;39.06;28.07
75298;BME280;63896;45.990;18.688;2023-07-22T10:18:52;100676.31;;;38.75;28.01
75298;BME280;63896;45.990;18.688;2023-07-22T10:21:56;100669.53;;;39.12;28.12
75298;BME280;63896;45.990;18.688;2023-07-22T10:25:01;100681.84;;;38.75;28.34
75298;BME280;63896;45.990;18.688;2023-07-22T10:28:06;100675.53;;;38.71;27.22
75298;BME280;63896;45.990;18.688;2023-07-22T10:31:10;100675.13;;;38.62;27.25
75298;BME280;63896;45.990;18.688;2023-07-22T10:34:13;100675.56;;;37.39;29.72
75298;BME280;63896;45.990;18.688;2023-07-22T10:37:19;100676.47;;;37.50;28.80
75298;BME280;63896;45.990;18.688;2023-07-22T10:40:29;100669.63;;;36.27;29.09
75298;BME280;63896;45.990;18.688;2023-07-22T10:43:34;100665.78;;;36.90;29.82
75298;BME280;63896;45.990;18.688;2023-07-22T10:46:39;100652.88;;;37.08;29.50
75298;BME280;63896;45.990;18.688;2023-07-22T10:49:45;100650.41;;;34.82;31.79
75298;BME280;63896;45.990;18.688;2023-07-22T10:52:50;100656.84;;;35.16;32.07
75298;BME280;63896;45.990;18.688;2023-07-22T10:56:12;100650.56;;;36.59;30.14
75298;BME280;63896;45.990;18.688;2023-07-22T10:59:26;100651.34;;;38.29;27.74
75298;BME280;63896;45.990;18.688;2023-07-22T11:02:29;100657.25;;;38.28;27.45
75298;BME280;63896;45.990;18.688;2023-07-22T11:05:52;100655.28;;;38.39;27.14
75298;BME280;63896;45.990;18.688;2023-07-22T11:08:56;100650.72;;;35.96;28.25
75298;BME280;63896;45.990;18.688;2023-07-22T11:12:10;100656.03;;;36.12;29.49
75298;BME280;63896;45.990;18.688;2023-07-22T11:15:17;100656.06;;;38.04;26.93
75298;BME280;63896;45.990;18.688;2023-07-22T11:18:20;100656.19;;;37.39;28.10
75298;BME280;63896;45.990;18.688;2023-07-22T11:21:23;100647.75;;;39.03;26.36
75298;BME280;63896;45.990;18.688;2023-07-22T11:24:26;100652.84;;;39.19;25.72
75298;BME280;63896;45.990;18.688;2023-07-22T11:27:29;100652.91;;;38.20;25.89
75298;BME280;63896;45.990;18.688;2023-07-22T11:30:32;100656.19;;;37.39;26.80
75298;BME280;63896;45.990;18.688;2023-07-22T11:33:40;100647.38;;;38.37;25.26
75298;BME280;63896;45.990;18.688;2023-07-22T11:36:44;100650.16;;;38.27;26.24
75298;BME280;63896;45.990;18.688;2023-07-22T11:39:50;100641.31;;;37.75;26.51
75298;BME280;63896;45.990;18.688;2023-07-22T11:42:52;100643.06;;;37.14;27.09
75298;BME280;63896;45.990;18.688;2023-07-22T11:45:55;100645.63;;;37.62;25.98
75298;BME280;63896;45.990;18.688;2023-07-22T11:49:02;100646.19;;;38.59;24.64
75298;BME280;63896;45.990;18.688;2023-07-22T11:52:06;100650.94;;;38.38;26.10
75298;BME280;63896;45.990;18.688;2023-07-22T11:55:11;100645.00;;;38.43;24.98
75298;BME280;63896;45.990;18.688;2023-07-22T11:58:25;100652.13;;;38.79;26.15
75298;BME280;63896;45.990;18.688;2023-07-22T12:01:32;100646.50;;;37.91;26.15
75298;BME280;63896;45.990;18.688;2023-07-22T12:04:35;100643.09;;;37.25;27.23
75298;BME280;63896;45.990;18.688;2023-07-22T12:07:38;100652.88;;;36.10;28.18
75298;BME280;63896;45.990;18.688;2023-07-22T12:10:44;100644.88;;;36.96;27.79
75298;BME280;63896;45.990;18.688;2023-07-22T12:13:47;100647.06;;;34.47;30.90
75298;BME280;63896;45.990;18.688;2023-07-22T12:16:55;100645.19;;;35.29;29.89
75298;BME280;63896;45.990;18.688;2023-07-22T12:20:06;100648.28;;;35.24;29.59
75298;BME280;63896;45.990;18.688;2023-07-22T12:23:11;100621.94;;;37.89;26.59
75298;BME280;63896;45.990;18.688;2023-07-22T12:26:14;100632.84;;;37.29;24.68
75298;BME280;63896;45.990;18.688;2023-07-22T12:29:17;100630.22;;;36.89;26.35
75298;BME280;63896;45.990;18.688;2023-07-22T12:32:21;100630.16;;;36.78;26.73
75298;BME280;63896;45.990;18.688;2023-07-22T12:35:24;100624.84;;;37.13;25.42
75298;BME280;63896;45.990;18.688;2023-07-22T12:38:26;100623.59;;;38.33;24.59
75298;BME280;63896;45.990;18.688;2023-07-22T12:41:30;100614.84;;;37.88;25.21
75298;BME280;63896;45.990;18.688;2023-07-22T12:44:33;100602.22;;;38.69;24.10
75298;BME280;63896;45.990;18.688;2023-07-22T12:47:36;100600.53;;;35.20;28.78
75298;BME280;63896;45.990;18.688;2023-07-22T12:50:40;100595.81;;;36.32;27.62
75298;BME280;63896;45.990;18.688;2023-07-22T12:53:43;100589.13;;;36.91;26.33
75298;BME280;63896;45.990;18.688;2023-07-22T12:56:46;100590.31;;;38.01;24.79
75298;BME280;63896;45.990;18.688;2023-07-22T12:59:48;100594.53;;;35.81;27.40
75298;BME280;63896;45.990;18.688;2023-07-22T13:02:51;100592.91;;;35.77;28.91
75298;BME280;63896;45.990;18.688;2023-07-22T13:05:54;100595.44;;;32.51;31.75
75298;BME280;63896;45.990;18.688;2023-07-22T13:08:57;100587.50;;;34.65;30.06
75298;BME280;63896;45.990;18.688;2023-07-22T13:12:00;100591.56;;;33.22;31.16
75298;BME280;63896;45.990;18.688;2023-07-22T13:15:08;100597.75;;;32.18;32.57
75298;BME280;63896;45.990;18.688;2023-07-22T13:18:12;100608.66;;;33.50;31.08
75298;BME280;63896;45.990;18.688;2023-07-22T13:21:16;100592.50;;;34.33;29.32
75298;BME280;63896;45.990;18.688;2023-07-22T13:24:19;100581.09;;;33.89;30.00
75298;BME280;63896;45.990;18.688;2023-07-22T13:27:24;100579.19;;;33.13;30.98
75298;BME280;63896;45.990;18.688;2023-07-22T13:30:28;100571.03;;;34.45;29.80
75298;BME280;63896;45.990;18.688;2023-07-22T13:33:30;100565.25;;;32.20;33.53
75298;BME280;63896;45.990;18.688;2023-07-22T13:36:34;100559.34;;;32.69;33.12
75298;BME280;63896;45.990;18.688;2023-07-22T13:39:37;100568.19;;;33.32;32.22
75298;BME280;63896;45.990;18.688;2023-07-22T13:42:40;100560.22;;;33.46;32.08
75298;BME280;63896;45.990;18.688;2023-07-22T13:45:44;100563.84;;;33.31;31.56
75298;BME280;63896;45.990;18.688;2023-07-22T13:48:48;100559.19;;;33.54;31.04
75298;BME280;63896;45.990;18.688;2023-07-22T13:51:50;100556.53;;;32.65;31.57
75298;BME280;63896;45.990;18.688;2023-07-22T13:54:54;100548.09;;;32.93;31.64
75298;BME280;63896;45.990;18.688;2023-07-22T13:57:57;100529.63;;;32.74;32.65
75298;BME280;63896;45.990;18.688;2023-07-22T14:01:00;100532.75;;;31.79;35.14
75298;BME280;63896;45.990;18.688;2023-07-22T14:04:04;100536.34;;;32.10;34.46
75298;BME280;63896;45.990;18.688;2023-07-22T14:07:07;100540.41;;;30.90;35.50
75298;BME280;63896;45.990;18.688;2023-07-22T14:10:09;100524.63;;;31.67;34.93
75298;BME280;63896;45.990;18.688;2023-07-22T14:13:12;100509.28;;;32.09;34.45
75298;BME280;63896;45.990;18.688;2023-07-22T14:16:15;100523.44;;;31.24;34.72
75298;BME280;63896;45.990;18.688;2023-07-22T14:19:24;100512.59;;;31.87;34.40
75298;BME280;63896;45.990;18.688;2023-07-22T14:22:28;100506.28;;;31.55;33.98
75298;BME280;63896;45.990;18.688;2023-07-22T14:25:32;100499.88;;;31.07;35.59
75298;BME280;63896;45.990;18.688;2023-07-22T14:28:35;100497.75;;;31.16;36.58
75298;BME280;63896;45.990;18.688;2023-07-22T14:31:37;100502.41;;;31.44;35.56
75298;BME280;63896;45.990;18.688;2023-07-22T14:34:41;100506.38;;;31.31;36.05
75298;BME280;63896;45.990;18.688;2023-07-22T14:37:44;100501.59;;;31.28;35.57
75298;BME280;63896;45.990;18.688;2023-07-22T14:40:48;100495.88;;;30.53;36.49
75298;BME280;63896;45.990;18.688;2023-07-22T14:43:51;100505.19;;;30.64;36.75
75298;BME280;63896;45.990;18.688;2023-07-22T14:46:54;100493.09;;;29.80;38.35
75298;BME280;63896;45.990;18.688;2023-07-22T14:49:57;100496.75;;;29.84;38.95
75298;BME280;63896;45.990;18.688;2023-07-22T14:53:00;100492.31;;;30.40;37.60
75298;BME280;63896;45.990;18.688;2023-07-22T14:56:03;100490.97;;;30.46;36.37
75298;BME280;63896;45.990;18.688;2023-07-22T14:59:13;100490.28;;;30.49;37.33
75298;BME280;63896;45.990;18.688;2023-07-22T15:02:16;100483.06;;;30.57;36.47
75298;BME280;63896;45.990;18.688;2023-07-22T15:05:20;100491.59;;;30.67;36.30
75298;BME280;63896;45.990;18.688;2023-07-22T15:08:24;100500.53;;;30.64;36.17
75298;BME280;63896;45.990;18.688;2023-07-22T15:11:27;100507.69;;;30.81;36.47
75298;BME280;63896;45.990;18.688;2023-07-22T15:14:32;100501.22;;;30.37;37.21
75298;BME280;63896;45.990;18.688;2023-07-22T15:18:08;100493.41;;;29.78;37.80
75298;BME280;63896;45.990;18.688;2023-07-22T15:21:11;100497.94;;;30.07;37.82
75298;BME280;63896;45.990;18.688;2023-07-22T15:24:16;100493.22;;;30.20;37.90
75298;BME280;63896;45.990;18.688;2023-07-22T15:27:20;100489.59;;;30.52;38.04
75298;BME280;63896;45.990;18.688;2023-07-22T15:30:23;100486.94;;;30.56;37.94
75298;BME280;63896;45.990;18.688;2023-07-22T15:33:26;100481.72;;;29.90;37.80
75298;BME280;63896;45.990;18.688;2023-07-22T15:36:29;100477.25;;;29.86;37.18
75298;BME280;63896;45.990;18.688;2023-07-22T15:39:32;100467.44;;;29.85;37.55
75298;BME280;63896;45.990;18.688;2023-07-22T15:42:37;100470.06;;;29.81;37.77
75298;BME280;63896;45.990;18.688;2023-07-22T15:45:44;100464.19;;;30.03;38.80